Ana Sayfa
METAR-TAF:

METAR-TAF

Havaalanları :

Piggs Peak, Svaziland

Enlem: 25-58-04S, Boylam: 31-15-03E, yükseklik: 1099 m

Güncel hava durumu gözlemi

Rapor saat 01:00 UTC de 1 saat ve 24 dakika önce yapıldı.
Rüzgar kuzeybatıdan 4 kt
Sıcaklık 11°C
Nem 35%
Basınç 1024 hPa

METAR: FDPP 070100Z AUTO 31004KT //// // ////// 11/M04 Q1024

Saat: 04:24 (02:24 UTC)


TAF: eksik

4.000'den fazla havaalanı için hava durumu gözlemleri ve tahminleri (METAR ve TAF raporları).

Kullanılabilir istasyonlar harita üzerinde sarı ve kırmızı noktalarla gösterilir.

İstasyonun adını görmek için fareyi noktanın üzerinde gezdirin.

Sonrasında hava gözlem ve tahminlerini görmek için tıklayın.

Haritayı değiştirmek için: yaklaştırmak için siyah artı işaretli yeşil düğmeye ve uzaklaştırmak için de eksi işaretli düğmeye hızla tıklayın; bitişik haritalar için yeşil okları kullanın.


METAR-TAF: